ABR4314 EIDW-EINN
Flight info
| Callsign | ABR4314 |
|---|---|
| Flight time | 0h 32m |
| Altitude | 24000 |
| Route | PELIG2J PELIG DCT DIGAN DIGAN2E |
| Aircraft | B738/M-SDE2E3FGHIRWXY/LB1 |
Departure
| Time | 2026-05-05 16:42 |
|---|---|
| Airport | Dublin Airport (EIDW) |
Arrival
| Time | 2026-05-05 17:15 |
|---|---|
| Airport | Shannon Airport (EINN) |
| Time | Latitude | Longitude | Altitude | Speed | Heading |
|---|---|---|---|---|---|
| 2026-05-05 16:23 | 53.42419 | -6.26199 | 210 ft | 0 kts | 185° |
| 2026-05-05 16:27 | 53.42426 | -6.26198 | 214 ft | 3 kts | 182° |
| 2026-05-05 16:27 | 53.42446 | -6.26200 | 210 ft | 3 kts | 167° |
| 2026-05-05 16:28 | 53.42465 | -6.26209 | 216 ft | 3 kts | 164° |
| 2026-05-05 16:28 | 53.42483 | -6.26215 | 218 ft | 3 kts | 169° |
| 2026-05-05 16:28 | 53.42501 | -6.26225 | 213 ft | 3 kts | 140° |
| 2026-05-05 16:28 | 53.42513 | -6.26249 | 214 ft | 3 kts | 108° |
| 2026-05-05 16:29 | 53.42516 | -6.26270 | 210 ft | 1 kts | 95° |
| 2026-05-05 16:33 | 53.42516 | -6.26265 | 211 ft | 1 kts | 95° |
| 2026-05-05 16:33 | 53.42515 | -6.26252 | 213 ft | 3 kts | 95° |
| 2026-05-05 16:33 | 53.42513 | -6.26206 | 213 ft | 4 kts | 95° |
| 2026-05-05 16:33 | 53.42510 | -6.26153 | 215 ft | 5 kts | 95° |
| 2026-05-05 16:34 | 53.42507 | -6.26100 | 212 ft | 5 kts | 95° |
| 2026-05-05 16:34 | 53.42503 | -6.26028 | 213 ft | 7 kts | 95° |
| 2026-05-05 16:34 | 53.42499 | -6.25950 | 215 ft | 6 kts | 95° |
| 2026-05-05 16:34 | 53.42488 | -6.25902 | 216 ft | 7 kts | 121° |
| 2026-05-05 16:35 | 53.42475 | -6.25814 | 210 ft | 9 kts | 74° |
| 2026-05-05 16:35 | 53.42515 | -6.25731 | 210 ft | 10 kts | 45° |
| 2026-05-05 16:35 | 53.42586 | -6.25609 | 210 ft | 12 kts | 46° |
| 2026-05-05 16:35 | 53.42646 | -6.25504 | 210 ft | 12 kts | 45° |
| 2026-05-05 16:36 | 53.42723 | -6.25493 | 212 ft | 12 kts | 338° |
| 2026-05-05 16:36 | 53.42773 | -6.25528 | 212 ft | 12 kts | 337° |
| 2026-05-05 16:36 | 53.42848 | -6.25580 | 218 ft | 12 kts | 337° |
| 2026-05-05 16:36 | 53.42921 | -6.25632 | 216 ft | 11 kts | 337° |
| 2026-05-05 16:37 | 53.43003 | -6.25690 | 216 ft | 14 kts | 337° |
| 2026-05-05 16:37 | 53.43097 | -6.25758 | 213 ft | 15 kts | 336° |
| 2026-05-05 16:37 | 53.43218 | -6.25849 | 213 ft | 14 kts | 336° |
| 2026-05-05 16:37 | 53.43297 | -6.25908 | 212 ft | 10 kts | 338° |
| 2026-05-05 16:38 | 53.43357 | -6.25877 | 212 ft | 10 kts | 57° |
| 2026-05-05 16:38 | 53.43379 | -6.25801 | 212 ft | 12 kts | 65° |
| 2026-05-05 16:38 | 53.43408 | -6.25672 | 210 ft | 12 kts | 77° |
| 2026-05-05 16:38 | 53.43406 | -6.25535 | 210 ft | 12 kts | 96° |
| 2026-05-05 16:39 | 53.43397 | -6.25391 | 213 ft | 13 kts | 95° |
| 2026-05-05 16:39 | 53.43389 | -6.25246 | 218 ft | 12 kts | 95° |
| 2026-05-05 16:39 | 53.43379 | -6.25060 | 210 ft | 12 kts | 95° |
| 2026-05-05 16:39 | 53.43374 | -6.24968 | 218 ft | 12 kts | 95° |
| 2026-05-05 16:40 | 53.43367 | -6.24834 | 213 ft | 11 kts | 95° |
| 2026-05-05 16:40 | 53.43360 | -6.24704 | 218 ft | 11 kts | 95° |
| 2026-05-05 16:40 | 53.43371 | -6.24585 | 214 ft | 11 kts | 48° |
| 2026-05-05 16:40 | 53.43441 | -6.24553 | 211 ft | 10 kts | 6° |
| 2026-05-05 16:41 | 53.43501 | -6.24547 | 219 ft | 7 kts | 347° |
| 2026-05-05 16:41 | 53.43525 | -6.24612 | 218 ft | 7 kts | 277° |
| 2026-05-05 16:41 | 53.43530 | -6.24694 | 217 ft | 7 kts | 275° |
| 2026-05-05 16:41 | 53.43538 | -6.24818 | 212 ft | 17 kts | 276° |
| 2026-05-05 16:42 | 53.43567 | -6.25337 | 213 ft | 84 kts | 275° |
| 2026-05-05 16:42 | 53.43645 | -6.26733 | 214 ft | 153 kts | 279° |
| 2026-05-05 16:42 | 53.43773 | -6.28630 | 793 ft | 168 kts | 279° |
| 2026-05-05 16:42 | 53.43978 | -6.30604 | 1664 ft | 175 kts | 293° |
| 2026-05-05 16:43 | 53.44633 | -6.32243 | 2681 ft | 170 kts | 314° |
| 2026-05-05 16:43 | 53.45456 | -6.33716 | 3597 ft | 176 kts | 314° |
| 2026-05-05 16:43 | 53.46346 | -6.35258 | 4358 ft | 188 kts | 315° |
| 2026-05-05 16:43 | 53.47239 | -6.36907 | 5111 ft | 194 kts | 307° |
| 2026-05-05 16:44 | 53.48015 | -6.38770 | 5855 ft | 195 kts | 304° |
| 2026-05-05 16:44 | 53.48799 | -6.40670 | 6476 ft | 203 kts | 304° |
| 2026-05-05 16:44 | 53.49646 | -6.42665 | 6913 ft | 219 kts | 305° |
| 2026-05-05 16:44 | 53.50597 | -6.44884 | 7164 ft | 249 kts | 301° |
| 2026-05-05 16:45 | 53.51164 | -6.47699 | 7375 ft | 265 kts | 274° |
| 2026-05-05 16:45 | 53.50914 | -6.50781 | 7683 ft | 271 kts | 252° |
| 2026-05-05 16:45 | 53.50114 | -6.53656 | 8176 ft | 271 kts | 242° |
| 2026-05-05 16:45 | 53.49172 | -6.56366 | 9111 ft | 269 kts | 241° |
| 2026-05-05 16:46 | 53.48193 | -6.59070 | 9991 ft | 273 kts | 238° |
| 2026-05-05 16:46 | 53.47144 | -6.61725 | 10838 ft | 273 kts | 238° |
| 2026-05-05 16:46 | 53.46105 | -6.64421 | 11611 ft | 278 kts | 241° |
| 2026-05-05 16:46 | 53.45078 | -6.67345 | 11870 ft | 305 kts | 240° |
| 2026-05-05 16:47 | 53.44438 | -6.69094 | 11997 ft | 320 kts | 239° |
| 2026-05-05 16:47 | 53.43630 | -6.71268 | 12129 ft | 337 kts | 239° |
| 2026-05-05 16:47 | 53.42343 | -6.74696 | 12470 ft | 355 kts | 239° |
| 2026-05-05 16:47 | 53.41008 | -6.78226 | 13171 ft | 361 kts | 239° |
| 2026-05-05 16:48 | 53.39657 | -6.81792 | 14000 ft | 364 kts | 238° |
| 2026-05-05 16:48 | 53.38290 | -6.85396 | 14695 ft | 369 kts | 239° |
| 2026-05-05 16:48 | 53.36905 | -6.89045 | 15366 ft | 373 kts | 239° |
| 2026-05-05 16:48 | 53.35504 | -6.92735 | 16043 ft | 378 kts | 239° |
| 2026-05-05 16:49 | 53.34084 | -6.96470 | 16719 ft | 382 kts | 239° |
| 2026-05-05 16:49 | 53.32648 | -7.00240 | 17392 ft | 387 kts | 239° |
| 2026-05-05 16:49 | 53.31193 | -7.04054 | 18058 ft | 391 kts | 239° |
| 2026-05-05 16:49 | 53.29742 | -7.07856 | 18652 ft | 395 kts | 239° |
| 2026-05-05 16:50 | 53.28254 | -7.11747 | 19223 ft | 399 kts | 238° |
| 2026-05-05 16:50 | 53.26748 | -7.15678 | 19790 ft | 404 kts | 238° |
| 2026-05-05 16:50 | 53.25227 | -7.19643 | 20338 ft | 408 kts | 238° |
| 2026-05-05 16:50 | 53.23687 | -7.23653 | 20868 ft | 412 kts | 238° |
| 2026-05-05 16:51 | 53.22131 | -7.27696 | 21415 ft | 416 kts | 238° |
| 2026-05-05 16:51 | 53.20559 | -7.31773 | 21958 ft | 420 kts | 238° |
| 2026-05-05 16:51 | 53.19033 | -7.35948 | 22455 ft | 424 kts | 242° |
| 2026-05-05 16:51 | 53.17663 | -7.40320 | 22954 ft | 427 kts | 245° |
| 2026-05-05 16:52 | 53.16379 | -7.44729 | 23514 ft | 429 kts | 245° |
| 2026-05-05 16:52 | 53.15093 | -7.49215 | 24002 ft | 429 kts | 245° |
| 2026-05-05 16:52 | 53.13811 | -7.53646 | 24036 ft | 418 kts | 245° |
| 2026-05-05 16:52 | 53.12554 | -7.57914 | 24048 ft | 406 kts | 245° |
| 2026-05-05 16:53 | 53.11306 | -7.62099 | 24056 ft | 399 kts | 244° |
| 2026-05-05 16:53 | 53.10084 | -7.66160 | 24047 ft | 385 kts | 244° |
| 2026-05-05 16:53 | 53.08900 | -7.70072 | 24042 ft | 371 kts | 244° |
| 2026-05-05 16:53 | 53.07759 | -7.73831 | 24041 ft | 358 kts | 244° |
| 2026-05-05 16:54 | 53.06656 | -7.77458 | 24041 ft | 344 kts | 244° |
| 2026-05-05 16:54 | 53.05606 | -7.80907 | 23911 ft | 337 kts | 244° |
| 2026-05-05 16:54 | 53.04535 | -7.84429 | 23196 ft | 347 kts | 244° |
| 2026-05-05 16:54 | 53.03435 | -7.88036 | 22654 ft | 351 kts | 244° |
| 2026-05-05 16:55 | 53.02334 | -7.91640 | 22322 ft | 348 kts | 244° |
| 2026-05-05 16:55 | 53.01243 | -7.95204 | 22022 ft | 344 kts | 244° |
| 2026-05-05 16:55 | 53.00161 | -7.98734 | 21676 ft | 342 kts | 244° |
| 2026-05-05 16:55 | 52.99083 | -8.02247 | 21324 ft | 341 kts | 244° |
| 2026-05-05 16:56 | 52.98011 | -8.05739 | 20993 ft | 339 kts | 244° |
| 2026-05-05 16:56 | 52.96955 | -8.09172 | 20603 ft | 339 kts | 244° |
| 2026-05-05 16:56 | 52.95884 | -8.12650 | 20211 ft | 339 kts | 244° |
| 2026-05-05 16:56 | 52.94808 | -8.16132 | 19818 ft | 339 kts | 244° |
| 2026-05-05 16:57 | 52.93768 | -8.19637 | 19427 ft | 338 kts | 251° |
| 2026-05-05 16:57 | 52.93216 | -8.23405 | 19047 ft | 335 kts | 262° |
| 2026-05-05 16:57 | 52.92857 | -8.27220 | 18673 ft | 336 kts | 264° |
| 2026-05-05 16:57 | 52.92521 | -8.31050 | 18287 ft | 336 kts | 264° |
| 2026-05-05 16:58 | 52.92183 | -8.34876 | 17854 ft | 335 kts | 264° |
| 2026-05-05 16:58 | 52.91834 | -8.38696 | 17427 ft | 335 kts | 263° |
| 2026-05-05 16:58 | 52.91476 | -8.42510 | 17009 ft | 335 kts | 263° |
| 2026-05-05 16:58 | 52.91117 | -8.46260 | 16599 ft | 334 kts | 263° |
| 2026-05-05 16:59 | 52.90748 | -8.50055 | 16178 ft | 334 kts | 263° |
| 2026-05-05 16:59 | 52.90378 | -8.53844 | 15795 ft | 333 kts | 263° |
| 2026-05-05 16:59 | 52.90005 | -8.57623 | 15399 ft | 332 kts | 263° |
| 2026-05-05 16:59 | 52.89632 | -8.61393 | 15004 ft | 332 kts | 263° |
| 2026-05-05 17:00 | 52.89237 | -8.65154 | 14615 ft | 331 kts | 261° |
| 2026-05-05 17:00 | 52.88809 | -8.68840 | 14240 ft | 330 kts | 261° |
| 2026-05-05 17:00 | 52.88370 | -8.72567 | 13852 ft | 329 kts | 261° |
| 2026-05-05 17:00 | 52.87928 | -8.76279 | 13428 ft | 328 kts | 261° |
| 2026-05-05 17:01 | 52.87485 | -8.79980 | 13006 ft | 327 kts | 261° |
| 2026-05-05 17:01 | 52.87041 | -8.83671 | 12590 ft | 326 kts | 261° |
| 2026-05-05 17:01 | 52.86598 | -8.87341 | 12177 ft | 325 kts | 261° |
| 2026-05-05 17:01 | 52.86155 | -8.91003 | 11766 ft | 324 kts | 260° |
| 2026-05-05 17:02 | 52.85714 | -8.94647 | 11379 ft | 322 kts | 261° |
| 2026-05-05 17:02 | 52.85274 | -8.98281 | 10984 ft | 322 kts | 260° |
| 2026-05-05 17:02 | 52.84837 | -9.01910 | 10582 ft | 321 kts | 261° |
| 2026-05-05 17:02 | 52.84406 | -9.05478 | 10198 ft | 320 kts | 260° |
| 2026-05-05 17:03 | 52.83969 | -9.09088 | 9797 ft | 319 kts | 261° |
| 2026-05-05 17:03 | 52.83535 | -9.12677 | 9365 ft | 317 kts | 260° |
| 2026-05-05 17:03 | 52.83107 | -9.16245 | 8951 ft | 315 kts | 260° |
| 2026-05-05 17:03 | 52.82687 | -9.19795 | 8551 ft | 314 kts | 260° |
| 2026-05-05 17:04 | 52.82271 | -9.23325 | 8137 ft | 312 kts | 258° |
| 2026-05-05 17:04 | 52.81446 | -9.26613 | 7697 ft | 308 kts | 238° |
| 2026-05-05 17:04 | 52.80225 | -9.29450 | 7309 ft | 299 kts | 234° |
| 2026-05-05 17:04 | 52.78982 | -9.32134 | 6953 ft | 289 kts | 233° |
| 2026-05-05 17:05 | 52.77786 | -9.34686 | 6613 ft | 280 kts | 233° |
| 2026-05-05 17:05 | 52.76608 | -9.37191 | 6243 ft | 272 kts | 233° |
| 2026-05-05 17:05 | 52.75465 | -9.39618 | 6014 ft | 261 kts | 233° |
| 2026-05-05 17:05 | 52.74388 | -9.41896 | 5977 ft | 242 kts | 233° |
| 2026-05-05 17:06 | 52.73386 | -9.44003 | 5972 ft | 226 kts | 233° |
| 2026-05-05 17:06 | 52.72425 | -9.46017 | 5764 ft | 224 kts | 233° |
| 2026-05-05 17:06 | 52.71463 | -9.48033 | 5538 ft | 223 kts | 233° |
| 2026-05-05 17:06 | 52.70515 | -9.49975 | 5365 ft | 219 kts | 226° |
| 2026-05-05 17:07 | 52.69199 | -9.51212 | 5105 ft | 222 kts | 192° |
| 2026-05-05 17:07 | 52.67668 | -9.51028 | 4853 ft | 225 kts | 158° |
| 2026-05-05 17:07 | 52.66422 | -9.49498 | 4580 ft | 226 kts | 131° |
| 2026-05-05 17:07 | 52.65440 | -9.47484 | 4358 ft | 226 kts | 128° |
| 2026-05-05 17:08 | 52.64480 | -9.45435 | 4099 ft | 226 kts | 127° |
| 2026-05-05 17:08 | 52.63523 | -9.43391 | 3908 ft | 225 kts | 127° |
| 2026-05-05 17:08 | 52.62569 | -9.41356 | 3688 ft | 225 kts | 127° |
| 2026-05-05 17:08 | 52.61623 | -9.39350 | 3557 ft | 220 kts | 127° |
| 2026-05-05 17:09 | 52.60691 | -9.37381 | 3423 ft | 216 kts | 127° |
| 2026-05-05 17:09 | 52.60035 | -9.35248 | 3255 ft | 211 kts | 96° |
| 2026-05-05 17:09 | 52.60062 | -9.32888 | 3189 ft | 207 kts | 86° |
| 2026-05-05 17:09 | 52.60086 | -9.30499 | 3051 ft | 211 kts | 86° |
| 2026-05-05 17:10 | 52.60111 | -9.28087 | 2997 ft | 210 kts | 86° |
| 2026-05-05 17:10 | 52.60130 | -9.25708 | 2980 ft | 207 kts | 86° |
| 2026-05-05 17:10 | 52.60145 | -9.23360 | 3011 ft | 204 kts | 86° |
| 2026-05-05 17:10 | 52.60156 | -9.21005 | 3003 ft | 208 kts | 87° |
| 2026-05-05 17:11 | 52.60170 | -9.18610 | 3006 ft | 212 kts | 86° |
| 2026-05-05 17:11 | 52.60183 | -9.16204 | 3004 ft | 214 kts | 86° |
| 2026-05-05 17:11 | 52.60435 | -9.13845 | 2953 ft | 207 kts | 58° |
| 2026-05-05 17:11 | 52.61211 | -9.11843 | 2745 ft | 211 kts | 53° |
| 2026-05-05 17:12 | 52.62047 | -9.09890 | 2471 ft | 206 kts | 50° |
| 2026-05-05 17:12 | 52.62910 | -9.08025 | 2190 ft | 203 kts | 49° |
| 2026-05-05 17:12 | 52.63767 | -9.06199 | 1925 ft | 200 kts | 49° |
| 2026-05-05 17:12 | 52.64619 | -9.04380 | 1651 ft | 202 kts | 49° |
| 2026-05-05 17:13 | 52.65481 | -9.02540 | 1373 ft | 201 kts | 49° |
| 2026-05-05 17:13 | 52.66313 | -9.00763 | 1109 ft | 196 kts | 49° |
| 2026-05-05 17:13 | 52.67139 | -8.99002 | 800 ft | 190 kts | 49° |
| 2026-05-05 17:13 | 52.67917 | -8.97340 | 566 ft | 177 kts | 50° |
| 2026-05-05 17:14 | 52.68644 | -8.95787 | 336 ft | 165 kts | 51° |
| 2026-05-05 17:14 | 52.69335 | -8.94328 | 73 ft | 157 kts | 52° |
| 2026-05-05 17:14 | 52.69965 | -8.92999 | 38 ft | 132 kts | 52° |
| 2026-05-05 17:14 | 52.70451 | -8.91957 | 31 ft | 97 kts | 52° |
| 2026-05-05 17:15 | 52.70790 | -8.91239 | 26 ft | 62 kts | 52° |
| 2026-05-05 17:15 | 52.70961 | -8.90878 | 22 ft | 15 kts | 52° |
| 2026-05-05 17:15 | 52.70954 | -8.90748 | 23 ft | 13 kts | 139° |
| 2026-05-05 17:15 | 52.70883 | -8.90666 | 22 ft | 12 kts | 156° |
| 2026-05-05 17:16 | 52.70800 | -8.90674 | 23 ft | 12 kts | 198° |
| 2026-05-05 17:16 | 52.70716 | -8.90721 | 23 ft | 15 kts | 199° |
| 2026-05-05 17:16 | 52.70609 | -8.90781 | 22 ft | 16 kts | 199° |
| 2026-05-05 17:16 | 52.70503 | -8.90839 | 24 ft | 16 kts | 198° |
| 2026-05-05 17:17 | 52.70403 | -8.90893 | 24 ft | 15 kts | 198° |
| 2026-05-05 17:17 | 52.70306 | -8.90949 | 22 ft | 14 kts | 198° |
| 2026-05-05 17:17 | 52.70212 | -8.90999 | 23 ft | 14 kts | 198° |
| 2026-05-05 17:17 | 52.70112 | -8.91056 | 22 ft | 16 kts | 198° |
| 2026-05-05 17:18 | 52.70007 | -8.91113 | 22 ft | 16 kts | 199° |
| 2026-05-05 17:18 | 52.69904 | -8.91170 | 21 ft | 15 kts | 199° |
| 2026-05-05 17:18 | 52.69805 | -8.91225 | 22 ft | 15 kts | 199° |
| 2026-05-05 17:18 | 52.69710 | -8.91277 | 22 ft | 14 kts | 198° |
| 2026-05-05 17:19 | 52.69620 | -8.91327 | 23 ft | 13 kts | 198° |
| 2026-05-05 17:19 | 52.69527 | -8.91378 | 24 ft | 15 kts | 198° |
| 2026-05-05 17:19 | 52.69430 | -8.91432 | 22 ft | 15 kts | 198° |
| 2026-05-05 17:19 | 52.69336 | -8.91483 | 23 ft | 11 kts | 198° |
| 2026-05-05 17:20 | 52.69285 | -8.91512 | 21 ft | 7 kts | 199° |
| 2026-05-05 17:20 | 52.69250 | -8.91534 | 23 ft | 5 kts | 190° |
| 2026-05-05 17:20 | 52.69222 | -8.91524 | 22 ft | 4 kts | 163° |
| 2026-05-05 17:20 | 52.69198 | -8.91536 | 22 ft | 4 kts | 221° |
| 2026-05-05 17:21 | 52.69180 | -8.91561 | 21 ft | 2 kts | 220° |
| 2026-05-05 17:21 | 52.69173 | -8.91572 | 21 ft | 1 kts | 220° |
| 2026-05-05 17:21 | 52.69172 | -8.91572 | 21 ft | 0 kts | 220° |